createdAt,value
2022-09-30T00:01:12.766Z,95241.06
2022-09-30T00:03:40.467Z,95246.63
2022-09-30T00:06:09.265Z,95254.25
2022-09-30T00:08:37.648Z,95255.56
2022-09-30T00:11:08.872Z,95251.97
2022-09-30T00:13:40.083Z,95251.47
2022-09-30T00:16:10.244Z,95264.50
2022-09-30T00:18:38.478Z,95268.31
2022-09-30T00:21:07.223Z,95274.00
2022-09-30T00:23:36.274Z,95275.47
2022-09-30T00:26:07.787Z,95278.94
2022-09-30T00:28:36.019Z,95291.16
2022-09-30T00:31:06.432Z,95286.88
2022-09-30T00:33:34.155Z,95281.97
2022-09-30T00:36:02.285Z,95283.88
2022-09-30T00:38:30.002Z,95304.19
2022-09-30T00:40:59.682Z,95296.09
2022-09-30T00:43:42.900Z,95301.16
2022-09-30T00:46:20.794Z,95300.50
2022-09-30T00:48:53.964Z,95297.97
2022-09-30T00:51:28.368Z,95300.00
2022-09-30T00:53:59.128Z,95296.19
2022-09-30T00:56:29.308Z,95296.50
2022-09-30T00:59:04.304Z,95301.59
2022-09-30T01:01:32.669Z,95305.88
2022-09-30T01:04:03.178Z,95304.09
2022-09-30T01:06:31.012Z,95299.00
2022-09-30T01:08:59.576Z,95306.78
2022-09-30T01:11:28.682Z,95311.41
2022-09-30T01:14:03.663Z,95307.25
2022-09-30T01:16:49.752Z,95306.13
2022-09-30T01:19:30.220Z,95301.84
2022-09-30T01:22:19.271Z,95300.72
2022-09-30T01:25:17.602Z,95313.13
2022-09-30T01:28:17.491Z,95305.03
2022-09-30T01:31:03.524Z,95313.56
2022-09-30T01:33:43.144Z,95316.13
2022-09-30T01:36:29.143Z,95321.38
2022-09-30T01:39:11.795Z,95323.75
2022-09-30T01:41:45.765Z,95325.66
2022-09-30T01:44:20.073Z,95323.16
2022-09-30T01:46:55.791Z,95325.19
2022-09-30T01:49:32.279Z,95334.25
2022-09-30T01:52:06.988Z,95337.91
2022-09-30T01:54:42.111Z,95345.38
2022-09-30T01:57:16.725Z,95334.94
2022-09-30T01:59:48.773Z,95339.25
2022-09-30T02:02:21.813Z,95339.25
2022-09-30T02:04:55.495Z,95337.66
2022-09-30T02:07:27.751Z,95347.63
2022-09-30T02:10:01.422Z,95338.31
2022-09-30T02:12:34.232Z,95348.28
2022-09-30T02:15:07.559Z,95341.66
2022-09-30T02:17:43.056Z,95350.53
2022-09-30T02:20:17.431Z,95350.72
2022-09-30T02:22:50.579Z,95351.16
2022-09-30T02:25:24.075Z,95353.22
2022-09-30T02:27:56.573Z,95350.19
2022-09-30T02:30:24.442Z,95344.97
2022-09-30T02:32:57.923Z,95342.72
2022-09-30T02:35:29.692Z,95339.72
2022-09-30T02:38:03.419Z,95338.59
2022-09-30T02:40:36.865Z,95342.09
2022-09-30T02:43:06.191Z,95343.66
2022-09-30T02:45:44.082Z,95339.06
2022-09-30T02:48:27.572Z,95344.16
2022-09-30T02:51:03.843Z,95346.84
2022-09-30T02:53:39.750Z,95346.97
2022-09-30T02:56:20.624Z,95361.22
2022-09-30T02:58:50.746Z,95356.81
2022-09-30T03:01:18.832Z,95360.94
2022-09-30T03:03:51.515Z,95369.47
2022-09-30T03:06:20.298Z,95380.25
2022-09-30T03:08:48.499Z,95383.28
2022-09-30T03:11:19.079Z,95382.50
2022-09-30T03:14:05.075Z,95376.78
2022-09-30T03:16:48.884Z,95385.19
2022-09-30T03:19:35.581Z,95378.88
2022-09-30T03:22:25.708Z,95388.84
2022-09-30T03:25:12.075Z,95386.94
2022-09-30T03:27:48.770Z,95392.34
2022-09-30T03:30:24.118Z,95390.44
2022-09-30T03:33:05.840Z,95386.63
2022-09-30T03:35:46.782Z,95390.91
2022-09-30T03:38:23.960Z,95397.56
2022-09-30T03:41:02.550Z,95399.47
2022-09-30T03:43:36.460Z,95400.25
2022-09-30T03:46:11.052Z,95401.38
2022-09-30T03:48:40.504Z,95409.44
2022-09-30T03:51:10.540Z,95402.94
2022-09-30T03:53:42.077Z,95397.56
2022-09-30T03:56:10.167Z,95401.81
2022-09-30T03:58:41.859Z,95400.72
2022-09-30T04:01:19.164Z,95406.13
2022-09-30T04:03:47.675Z,95410.84
2022-09-30T04:06:16.716Z,95419.25
2022-09-30T04:08:44.795Z,95417.19
2022-09-30T04:11:12.927Z,95413.38
2022-09-30T04:13:40.656Z,95415.78
2022-09-30T04:16:09.088Z,95400.72
2022-09-30T04:18:38.263Z,95402.31
2022-09-30T04:21:07.602Z,95416.09
2022-09-30T04:23:37.948Z,95420.38
2022-09-30T04:26:06.972Z,95416.53
2022-09-30T04:28:35.036Z,95416.69
2022-09-30T04:31:03.978Z,95426.03
2022-09-30T04:33:32.214Z,95428.09
2022-09-30T04:36:01.532Z,95429.84
2022-09-30T04:38:29.795Z,95429.53
2022-09-30T04:40:59.067Z,95425.09
2022-09-30T04:43:26.797Z,95422.41
2022-09-30T04:45:54.621Z,95424.03
2022-09-30T04:48:23.277Z,95431.78
2022-09-30T04:50:51.506Z,95426.56
2022-09-30T04:53:19.790Z,95426.56
2022-09-30T04:55:47.661Z,95435.44
2022-09-30T04:58:16.980Z,95436.91
2022-09-30T05:00:44.711Z,95438.47
2022-09-30T05:03:12.465Z,95446.41
2022-09-30T05:05:40.688Z,95439.44
2022-09-30T05:08:08.403Z,95444.81
2022-09-30T05:10:36.123Z,95443.38
2022-09-30T05:13:03.816Z,95438.78
2022-09-30T05:15:35.508Z,95448.13
2022-09-30T05:18:03.174Z,95454.63
2022-09-30T05:20:30.850Z,95454.16
2022-09-30T05:22:59.645Z,95466.84
2022-09-30T05:25:27.400Z,95474.28
2022-09-30T05:27:55.117Z,95482.38
2022-09-30T05:30:22.994Z,95480.47
2022-09-30T05:32:52.206Z,95483.50
2022-09-30T05:35:19.899Z,95476.50
2022-09-30T05:37:47.614Z,95475.41
2022-09-30T05:40:15.307Z,95482.06
2022-09-30T05:42:47.085Z,95480.81
2022-09-30T05:45:14.917Z,95490.13
2022-09-30T05:47:42.746Z,95489.34
2022-09-30T05:50:11.957Z,95482.84
2022-09-30T05:52:39.651Z,95489.50
2022-09-30T05:55:07.839Z,95489.97
2022-09-30T05:57:36.261Z,95489.34
2022-09-30T06:00:04.352Z,95495.19
2022-09-30T06:02:39.655Z,95502.63
2022-09-30T06:05:08.040Z,95510.88
2022-09-30T06:07:38.598Z,95500.56
2022-09-30T06:10:09.159Z,95503.41
2022-09-30T06:12:37.101Z,95508.19
2022-09-30T06:15:05.381Z,95521.31
2022-09-30T06:17:33.077Z,95521.50
2022-09-30T06:20:01.023Z,95523.06
2022-09-30T06:22:28.932Z,95540.97
2022-09-30T06:24:58.157Z,95548.72
2022-09-30T06:27:25.867Z,95543.34
2022-09-30T06:29:53.531Z,95547.66
2022-09-30T06:32:21.280Z,95551.91
2022-09-30T06:34:49.003Z,95551.75
2022-09-30T06:37:18.485Z,95552.22
2022-09-30T06:39:46.183Z,95552.69
2022-09-30T06:42:15.272Z,95554.72
2022-09-30T06:44:52.206Z,95549.66
2022-09-30T06:47:25.526Z,95550.94
2022-09-30T06:49:58.515Z,95556.94
2022-09-30T06:52:27.219Z,95562.63
2022-09-30T06:54:56.554Z,95566.25
2022-09-30T06:57:28.026Z,95558.47
2022-09-30T06:59:56.203Z,95564.63
2022-09-30T07:02:24.014Z,95564.72
2022-09-30T07:04:51.736Z,95566.44
2022-09-30T07:07:22.182Z,95568.50
2022-09-30T07:09:50.041Z,95563.91
2022-09-30T07:12:18.066Z,95571.66
2022-09-30T07:14:47.868Z,95565.19
2022-09-30T07:17:15.709Z,95576.09
2022-09-30T07:19:43.452Z,95586.88
2022-09-30T07:22:29.972Z,95582.59
2022-09-30T07:24:59.163Z,95595.25
2022-09-30T07:27:28.226Z,95588.03
2022-09-30T07:30:08.919Z,95585.44
2022-09-30T07:32:39.554Z,95588.81
2022-09-30T07:35:12.476Z,95594.97
2022-09-30T07:37:40.635Z,95600.19
2022-09-30T07:40:09.843Z,95601.13
2022-09-30T07:42:40.841Z,95606.66
2022-09-30T07:45:11.182Z,95616.63
2022-09-30T07:47:39.300Z,95615.13
2022-09-30T07:50:15.441Z,95615.63
2022-09-30T07:52:43.244Z,95617.00
2022-09-30T07:55:11.077Z,95617.94
2022-09-30T07:57:39.232Z,95624.13
2022-09-30T08:00:29.892Z,95628.88
2022-09-30T08:02:57.529Z,95626.34
2022-09-30T08:05:25.381Z,95634.59
2022-09-30T08:07:53.439Z,95619.41
2022-09-30T08:10:21.347Z,95632.25
2022-09-30T08:12:49.304Z,95627.91
2022-09-30T08:15:17.413Z,95635.81
2022-09-30T08:17:45.307Z,95632.53
2022-09-30T08:20:18.768Z,95640.13
2022-09-30T08:22:52.955Z,95623.19
2022-09-30T08:25:20.777Z,95635.28
2022-09-30T08:27:48.641Z,95641.97
2022-09-30T08:30:16.691Z,95649.50
2022-09-30T08:32:44.782Z,95648.69
2022-09-30T08:35:13.960Z,95656.69
2022-09-30T08:37:41.801Z,95665.22
2022-09-30T08:40:18.758Z,95671.06
2022-09-30T08:43:01.118Z,95671.84
2022-09-30T08:45:36.914Z,95672.75
2022-09-30T08:48:20.298Z,95672.97
2022-09-30T08:51:00.848Z,95675.59
2022-09-30T08:53:32.450Z,95680.94
2022-09-30T08:56:02.677Z,95676.44
2022-09-30T08:58:33.486Z,95677.03
2022-09-30T09:01:09.560Z,95676.94
2022-09-30T09:03:37.518Z,95676.38
2022-09-30T09:06:19.651Z,95684.16
2022-09-30T09:09:04.963Z,95683.06
2022-09-30T09:11:47.954Z,95687.13
2022-09-30T09:14:27.417Z,95690.41
2022-09-30T09:17:10.680Z,95684.53
2022-09-30T09:19:46.769Z,95688.81
2022-09-30T09:22:16.919Z,95691.63
2022-09-30T09:24:50.640Z,95695.22
2022-09-30T09:27:21.529Z,95693.97
2022-09-30T09:30:01.348Z,95696.06
2022-09-30T09:32:30.326Z,95703.75
2022-09-30T09:35:02.525Z,95705.78
2022-09-30T09:37:58.423Z,95716.28
2022-09-30T09:40:35.626Z,95706.69
2022-09-30T09:43:13.326Z,95709.03
2022-09-30T09:45:50.031Z,95707.28
2022-09-30T09:48:17.910Z,95708.97
2022-09-30T09:50:56.989Z,95714.38
2022-09-30T09:53:49.022Z,95713.94
2022-09-30T09:56:21.933Z,95704.03
2022-09-30T09:59:10.090Z,95706.63
2022-09-30T10:01:41.120Z,95716.28
2022-09-30T10:04:17.766Z,95728.25
2022-09-30T10:06:48.523Z,95723.69
2022-09-30T10:09:32.208Z,95732.84
2022-09-30T10:12:19.885Z,95743.72
2022-09-30T10:14:54.118Z,95742.41
2022-09-30T10:17:29.337Z,95755.50
2022-09-30T10:20:01.911Z,95756.66
2022-09-30T10:22:31.771Z,95756.22
2022-09-30T10:25:23.708Z,95757.94
2022-09-30T10:27:55.160Z,95759.09
2022-09-30T10:30:39.346Z,95763.28
2022-09-30T10:33:22.772Z,95775.59
2022-09-30T10:35:56.123Z,95779.81
2022-09-30T10:38:26.154Z,95780.50
2022-09-30T10:40:55.555Z,95785.25
2022-09-30T10:43:28.126Z,95771.72
2022-09-30T10:46:20.923Z,95776.72
2022-09-30T10:48:50.576Z,95780.72
2022-09-30T10:51:26.037Z,95779.13
2022-09-30T10:53:54.420Z,95777.81
2022-09-30T10:56:42.387Z,95780.19
2022-09-30T10:59:20.750Z,95782.31
2022-09-30T11:01:55.143Z,95777.03
2022-09-30T11:04:31.584Z,95780.66
2022-09-30T11:07:11.345Z,95780.84
2022-09-30T11:09:45.411Z,95769.00
2022-09-30T11:12:22.877Z,95776.22
2022-09-30T11:14:58.860Z,95763.63
2022-09-30T11:17:34.977Z,95757.81
2022-09-30T11:20:12.698Z,95764.03
2022-09-30T11:22:58.170Z,95756.03
2022-09-30T11:25:35.505Z,95756.94
2022-09-30T11:28:17.963Z,95759.72
2022-09-30T11:30:55.919Z,95774.03
2022-09-30T11:33:36.155Z,95772.38
2022-09-30T11:36:17.024Z,95777.97
2022-09-30T11:39:04.637Z,95778.78
2022-09-30T11:41:36.818Z,95790.28
2022-09-30T11:44:21.625Z,95792.06
2022-09-30T11:47:20.852Z,95794.19
2022-09-30T11:50:08.680Z,95806.75
2022-09-30T11:52:47.969Z,95787.91
2022-09-30T11:55:36.452Z,95786.47
2022-09-30T11:58:28.491Z,95785.16
2022-09-30T12:01:01.644Z,95781.09
2022-09-30T12:03:35.551Z,95794.25
2022-09-30T12:06:08.774Z,95784.34
2022-09-30T12:08:41.740Z,95783.38
2022-09-30T12:11:13.104Z,95783.47
2022-09-30T12:13:44.653Z,95777.44
2022-09-30T12:16:17.874Z,95773.72
2022-09-30T12:18:49.818Z,95764.00
2022-09-30T12:21:22.805Z,95777.47
2022-09-30T12:23:55.949Z,95772.22
2022-09-30T12:26:24.037Z,95780.22
2022-09-30T12:29:15.123Z,95771.75
2022-09-30T12:32:08.968Z,95775.00
2022-09-30T12:34:53.240Z,95784.34
2022-09-30T12:37:38.126Z,95778.00
2022-09-30T12:40:24.891Z,95774.00
2022-09-30T12:43:08.152Z,95774.78
2022-09-30T12:46:03.937Z,95779.06
2022-09-30T12:48:39.043Z,95771.44
2022-09-30T12:51:08.330Z,95780.41
2022-09-30T12:53:38.804Z,95767.56
2022-09-30T12:56:09.639Z,95768.28
2022-09-30T12:58:43.884Z,95770.13
2022-09-30T13:01:15.264Z,95761.66
2022-09-30T13:03:51.469Z,95765.38
2022-09-30T13:06:21.519Z,95756.22
2022-09-30T13:09:20.303Z,95757.22
2022-09-30T13:11:48.524Z,95762.91
2022-09-30T13:14:34.243Z,95763.91
2022-09-30T13:17:23.540Z,95765.28
2022-09-30T13:19:54.650Z,95775.91
2022-09-30T13:22:56.083Z,95778.81
2022-09-30T13:25:23.915Z,95769.34
2022-09-30T13:27:55.387Z,95769.13
2022-09-30T13:30:45.765Z,95778.22
2022-09-30T13:33:32.349Z,95778.56
2022-09-30T13:36:11.095Z,95773.53
2022-09-30T13:38:41.457Z,95782.22
2022-09-30T13:41:18.025Z,95772.69
2022-09-30T13:43:50.887Z,95762.72
2022-09-30T13:46:28.326Z,95763.22
2022-09-30T13:49:01.460Z,95766.63
2022-09-30T13:51:33.613Z,95766.22
2022-09-30T13:54:08.290Z,95764.56
2022-09-30T13:56:39.915Z,95775.22
2022-09-30T13:59:31.467Z,95766.44
2022-09-30T14:02:24.573Z,95779.00
2022-09-30T14:05:23.494Z,95777.94
2022-09-30T14:08:10.338Z,95790.59
2022-09-30T14:10:57.034Z,95788.09
2022-09-30T14:13:41.695Z,95785.97
2022-09-30T14:16:37.559Z,95778.41
2022-09-30T14:19:29.125Z,95771.97
2022-09-30T14:21:59.596Z,95761.22
2022-09-30T14:24:36.507Z,95765.25
2022-09-30T14:27:29.460Z,95765.34
2022-09-30T14:30:10.898Z,95757.28
2022-09-30T14:32:46.105Z,95767.97
2022-09-30T14:35:18.864Z,95769.53
2022-09-30T14:37:50.167Z,95771.81
2022-09-30T14:40:24.707Z,95780.34
2022-09-30T14:42:53.095Z,95770.41
2022-09-30T14:45:27.272Z,95768.81
2022-09-30T14:47:58.463Z,95767.09
2022-09-30T14:50:31.129Z,95768.94
2022-09-30T14:53:00.521Z,95775.09
2022-09-30T14:55:31.824Z,95767.19
2022-09-30T14:58:22.517Z,95770.19
2022-09-30T15:00:58.584Z,95771.91
2022-09-30T15:03:27.045Z,95780.84
2022-09-30T15:05:55.151Z,95783.16
2022-09-30T15:08:23.616Z,95782.00
2022-09-30T15:10:56.378Z,95789.38
2022-09-30T15:13:28.340Z,95807.28
2022-09-30T15:15:56.324Z,95805.56
2022-09-30T15:18:31.188Z,95807.03
2022-09-30T15:21:02.573Z,95807.72
2022-09-30T15:23:33.442Z,95808.44
2022-09-30T15:26:03.555Z,95804.13
2022-09-30T15:28:33.107Z,95804.47
2022-09-30T15:31:01.541Z,95808.59
2022-09-30T15:33:31.865Z,95811.22
2022-09-30T15:36:06.575Z,95811.47
2022-09-30T15:38:36.979Z,95823.81
2022-09-30T15:41:09.957Z,95824.41
2022-09-30T15:43:41.259Z,95829.22
2022-09-30T15:46:26.771Z,95824.47
2022-09-30T15:48:55.918Z,95829.34
2022-09-30T15:51:26.284Z,95829.16
2022-09-30T15:53:57.956Z,95828.25
2022-09-30T15:56:32.918Z,95827.28
2022-09-30T15:59:02.068Z,95827.16
2022-09-30T16:01:36.472Z,95831.03
2022-09-30T16:04:14.317Z,95833.53
2022-09-30T16:06:47.824Z,95823.59
2022-09-30T16:09:23.545Z,95844.91
2022-09-30T16:12:03.489Z,95841.63
2022-09-30T16:14:35.127Z,95837.22
2022-09-30T16:17:06.050Z,95842.44
2022-09-30T16:19:34.466Z,95841.19
2022-09-30T16:22:02.678Z,95847.97
2022-09-30T16:25:04.020Z,95848.13
2022-09-30T16:27:33.927Z,95833.41
2022-09-30T16:30:02.296Z,95833.41
2022-09-30T16:32:33.801Z,95836.00
2022-09-30T16:35:01.580Z,95830.53
2022-09-30T16:37:29.370Z,95831.13
2022-09-30T16:40:02.816Z,95833.81
2022-09-30T16:42:32.892Z,95837.25
2022-09-30T16:45:01.955Z,95837.47
2022-09-30T16:47:29.728Z,95835.16
2022-09-30T16:49:57.605Z,95838.00
2022-09-30T16:52:26.051Z,95835.41
2022-09-30T16:54:53.879Z,95831.50
2022-09-30T16:57:21.652Z,95838.63
2022-09-30T16:59:49.414Z,95844.81
2022-09-30T17:02:18.682Z,95846.81
2022-09-30T17:04:47.240Z,95846.09
2022-09-30T17:07:15.166Z,95849.22
2022-09-30T17:09:44.126Z,95854.84
2022-09-30T17:12:13.220Z,95845.78
2022-09-30T17:14:43.904Z,95854.91
2022-09-30T17:17:13.581Z,95856.69
2022-09-30T17:19:43.083Z,95858.78
2022-09-30T17:22:10.837Z,95862.50
2022-09-30T17:24:38.596Z,95857.63
2022-09-30T17:27:07.768Z,95862.75
2022-09-30T17:29:41.758Z,95873.63
2022-09-30T17:32:10.077Z,95875.59
2022-09-30T17:34:37.830Z,95885.25
2022-09-30T17:39:35.859Z,95882.63
2022-09-30T17:42:21.143Z,95877.72
2022-09-30T17:44:48.866Z,95889.53
2022-09-30T17:47:16.615Z,95894.00
2022-09-30T17:49:44.509Z,95893.06
2022-09-30T17:52:15.458Z,95895.59
2022-09-30T17:54:43.184Z,95900.06
2022-09-30T17:57:11.000Z,95904.09
2022-09-30T17:59:38.751Z,95904.09
2022-09-30T18:02:06.480Z,95899.84
2022-09-30T18:04:35.428Z,95904.47
2022-09-30T18:07:03.184Z,95903.38
2022-09-30T18:09:33.054Z,95901.50
2022-09-30T18:12:00.906Z,95903.06
2022-09-30T18:14:33.029Z,95901.63
2022-09-30T18:17:00.698Z,95906.56
2022-09-30T18:19:28.614Z,95905.13
2022-09-30T18:21:56.346Z,95907.22
2022-09-30T18:24:44.087Z,95902.09
2022-09-30T18:27:13.422Z,95902.75
2022-09-30T18:29:41.126Z,95899.56
2022-09-30T18:32:09.084Z,95901.47
2022-09-30T18:34:36.801Z,95904.50
2022-09-30T18:37:06.408Z,95911.81
2022-09-30T18:39:37.160Z,95909.13
2022-09-30T18:42:05.342Z,95906.41
2022-09-30T18:44:37.366Z,95920.38
2022-09-30T18:47:05.401Z,95927.19
2022-09-30T18:49:33.151Z,95920.69
2022-09-30T18:52:01.780Z,95920.69
2022-09-30T18:54:29.854Z,95927.03
2022-09-30T18:56:57.584Z,95927.84
2022-09-30T18:59:25.853Z,95933.22
2022-09-30T19:01:55.684Z,95927.69
2022-09-30T19:04:23.442Z,95929.09
2022-09-30T19:06:51.128Z,95934.66
2022-09-30T19:09:18.867Z,95928.78
2022-09-30T19:11:47.962Z,95928.63
2022-09-30T19:14:16.200Z,95917.19
2022-09-30T19:16:44.557Z,95918.25
2022-09-30T19:19:13.635Z,95917.19
2022-09-30T19:21:41.320Z,95905.59
2022-09-30T19:24:10.132Z,95919.09
2022-09-30T19:26:40.181Z,95921.63
2022-09-30T19:29:09.556Z,95911.91
2022-09-30T19:31:38.005Z,95914.63
2022-09-30T19:34:06.186Z,95906.38
2022-09-30T19:36:44.879Z,95910.81
2022-09-30T19:39:15.713Z,95908.56
2022-09-30T19:41:44.613Z,95904.59
2022-09-30T19:44:12.392Z,95900.16
2022-09-30T19:46:41.063Z,95907.47
2022-09-30T19:49:08.859Z,95899.47
2022-09-30T19:51:38.173Z,95896.91
2022-09-30T19:54:07.657Z,95894.81
2022-09-30T19:56:36.313Z,95901.31
2022-09-30T19:59:05.008Z,95904.63
2022-09-30T20:01:34.559Z,95900.66
2022-09-30T20:04:05.161Z,95907.16
2022-09-30T20:06:34.191Z,95897.00
2022-09-30T20:09:06.485Z,95903.97
2022-09-30T20:11:36.902Z,95906.81
2022-09-30T20:14:24.032Z,95908.84
2022-09-30T20:16:51.993Z,95908.22
2022-09-30T20:19:20.457Z,95901.66
2022-09-30T20:21:49.897Z,95905.59
2022-09-30T20:24:19.669Z,95904.63
2022-09-30T20:26:48.002Z,95913.63
2022-09-30T20:29:16.663Z,95913.63
2022-09-30T20:31:44.902Z,95919.63
2022-09-30T20:34:14.650Z,95918.97
2022-09-30T20:36:42.810Z,95930.94
2022-09-30T20:39:12.064Z,95941.03
2022-09-30T20:41:41.831Z,95946.53
2022-09-30T20:44:13.601Z,95940.00
2022-09-30T20:46:42.858Z,95938.22
2022-09-30T20:49:10.769Z,95944.53
2022-09-30T20:51:38.724Z,95932.16
2022-09-30T20:54:06.473Z,95932.16
2022-09-30T20:56:50.118Z,95933.25
2022-09-30T20:59:24.031Z,95923.13
2022-09-30T21:01:51.757Z,95926.59
2022-09-30T21:04:19.488Z,95925.69
2022-09-30T21:06:47.637Z,95925.19
2022-09-30T21:09:15.551Z,95918.41
2022-09-30T21:11:43.269Z,95912.03
2022-09-30T21:14:11.102Z,95910.72
2022-09-30T21:16:40.233Z,95910.91
2022-09-30T21:19:10.391Z,95910.59
2022-09-30T21:21:38.087Z,95895.28
2022-09-30T21:24:05.731Z,95907.31
2022-09-30T21:26:33.463Z,95907.00
2022-09-30T21:29:02.098Z,95904.50
2022-09-30T21:31:30.040Z,95906.59
2022-09-30T21:34:00.879Z,95907.06
2022-09-30T21:36:32.068Z,95903.44
2022-09-30T21:39:02.388Z,95908.72
2022-09-30T21:41:31.327Z,95902.25
2022-09-30T21:43:59.680Z,95898.13
2022-09-30T21:46:27.783Z,95886.88
2022-09-30T21:49:06.887Z,95887.47
2022-09-30T21:51:35.452Z,95893.97
2022-09-30T21:54:03.539Z,95907.13
2022-09-30T21:56:31.531Z,95915.81
2022-09-30T21:58:59.436Z,95925.31
2022-09-30T22:01:27.143Z,95928.91
2022-09-30T22:03:54.922Z,95928.53
2022-09-30T22:06:24.099Z,95931.97
2022-09-30T22:08:51.772Z,95938.88
2022-09-30T22:11:24.471Z,95939.31
2022-09-30T22:13:55.498Z,95949.38
2022-09-30T22:16:25.496Z,95955.97
2022-09-30T22:18:54.628Z,95964.66
2022-09-30T22:21:24.396Z,95964.75
2022-09-30T22:23:52.872Z,95981.81
2022-09-30T22:26:22.771Z,95976.25
2022-09-30T22:28:55.598Z,95983.72
2022-09-30T22:31:25.727Z,95990.06
2022-09-30T22:34:13.195Z,95986.50
2022-09-30T22:36:59.991Z,95987.00
2022-09-30T22:39:28.196Z,95977.19
2022-09-30T22:41:57.092Z,95980.72
2022-09-30T22:44:26.758Z,95983.09
2022-09-30T22:46:54.892Z,95983.56
2022-09-30T22:49:24.326Z,95972.53
2022-09-30T22:51:53.819Z,95989.94
2022-09-30T22:54:22.108Z,95993.44
2022-09-30T22:56:50.284Z,95997.66
2022-09-30T22:59:18.351Z,96004.31
2022-09-30T23:01:46.646Z,95993.06
2022-09-30T23:04:14.819Z,96006.22
2022-09-30T23:06:42.761Z,96009.50
2022-09-30T23:09:12.063Z,96012.69
2022-09-30T23:11:42.217Z,96016.50
2022-09-30T23:14:10.458Z,96023.47
2022-09-30T23:16:38.297Z,96024.25
2022-09-30T23:19:06.469Z,96015.69
2022-09-30T23:21:34.847Z,96016.28
2022-09-30T23:24:03.688Z,96005.72
2022-09-30T23:26:32.821Z,96014.59
2022-09-30T23:29:02.067Z,96017.78
2022-09-30T23:31:31.304Z,96024.75
2022-09-30T23:34:02.550Z,96013.97
2022-09-30T23:36:33.054Z,96004.81
2022-09-30T23:39:08.228Z,96009.91
2022-09-30T23:41:37.571Z,96013.19
2022-09-30T23:44:05.609Z,96010.78
2022-09-30T23:46:33.635Z,96007.50
2022-09-30T23:49:01.374Z,96004.81
2022-09-30T23:51:29.123Z,96001.63
2022-09-30T23:53:56.832Z,96015.38
2022-09-30T23:56:25.013Z,96011.38
2022-09-30T23:58:54.135Z,96012.00
